首页
METAR-TAF:

METAR-TAF

机场 :

阿让, 法国

纬度: 44-11N, 经度: 000-36E, 海拔: 61米

当前天气观测

该预报发布于43分钟前的21:00 UTC
风速3节,风向西
温度 26°C
湿度 58%
气压 1022 hPa
能见度10公里或以上
1500米以下无云,无积雨云

METAR: LFBA 212100Z AUTO 28003KT CAVOK 26/17 Q1022

时间: 23:43 (21:43 UTC)

预报

该预报发布于7小时和43分钟前的14:00 UTC
预报有效从21日的 15点(UTC)到 21日的 24点(UTC)
风速6节,风向北转西北
能见度10公里或以上
1500米以下无云,无积雨云

TAF: LFBA 211400Z 2115/2124 33006KT CAVOK

超过4000个机场的气象观测和天气预报(METAR&TAF报告)。

可查询的气象台以黄色和红色小点在地图上表示。

将鼠标移到小点上方,可查看气象台名称。

然后点击查看天气观测和预报。

如需切换地图:点击带黑十字的绿色按钮放大地图;点击带横线的绿色按钮缩小地图;或者点击绿色箭头查看邻近地区的地图。


METAR-TAF: